NCAR-RAP Real-Time Weather Data

Output produced by METARs form (26 May 2022  08:44 UTC)
found at http://weather.rap.ucar.edu/surface/
 
KGSO 260754Z 11006KT 10SM OVC006 16/15 A3022 RMK AO2 SLP229 T01610150
KGSO 260654Z 10008KT 10SM OVC007 16/15 A3022 RMK AO2 SLP228 T01610150
KGSO 260554Z 11006KT 10SM OVC007 16/15 A3025 RMK AO2 SLP238 T01610150 10178 20161 56002
KGSO 260454Z 10006KT 10SM OVC009 17/15 A3025 RMK AO2 SLP239 T01670150 402060139
KGSO 260354Z 09007KT 10SM OVC006 17/16 A3025 RMK AO2 CIG 005V011 SLP238 T01670156
KGSO 260254Z 08010KT 10SM OVC006 16/15 A3026 RMK AO2 CIG 005V009 SLP241 T01610150 58001
KGSO 260154Z 08008KT 10SM OVC008 17/15 A3026 RMK AO2 CIG 006V011 SLP244 T01670150
KGSO 260104Z 08009KT 10SM OVC009 17/15 A3026 RMK AO2 CIG 007V013 T01670150
KGSO 260054Z 08010KT 10SM OVC011 17/15 A3026 RMK AO2 CIG 008V013 SLP242 T01720150
KGSO 252354Z 08008KT 10SM OVC014 18/15 A3026 RMK AO2 SLP241 T01780150 10206 20178 53006
KGSO 252334Z 08008KT 10SM OVC014 18/15 A3026 RMK AO2 T01780150
KGSO 252254Z 07007KT 10SM BKN015 OVC020 18/14 A3025 RMK AO2 SLP238 T01780144
KGSO 252154Z 08011KT 10SM OVC019 19/15 A3024 RMK AO2 SLP234 T01890150
KGSO 252054Z 07009KT 10SM BKN022 OVC031 20/16 A3024 RMK AO2 SLP234 T02000156 58011
KGSO 251954Z 05005KT 10SM BKN023 OVC030 21/15 A3025 RMK AO2 SLP238 T02060150
KGSO 251854Z VRB06KT 10SM BKN020 BKN250 20/15 A3026 RMK AO2 SLP242 T02000150
KGSO 251754Z 08006KT 10SM BKN017 OVC025 18/14 A3027 RMK AO2 SLP245 60000 T01830144 10183 20139 58007
KGSO 251724Z 04004KT 10SM BKN015 OVC024 18/13 A3028 RMK AO2 T01780133
KGSO 251654Z 03006KT 10SM BKN012 OVC018 17/13 A3029 RMK AO2 SLP250 T01720133
KGSO 251607Z 03005KT 10SM OVC010 17/13 A3030 RMK AO2 T01670133
KGSO 251554Z 05007KT 10SM OVC009 16/13 A3030 RMK AO2 SLP256 T01610133
KGSO 251454Z 07007KT 10SM OVC007 15/13 A3029 RMK AO2 SLP254 60000 T01500128 51004
KGSO 251354Z 07008KT 10SM BKN008 OVC017 14/13 A3029 RMK AO2 DZE26 SLP254 P0000 T01440128
KGSO 251254Z 05010KT 4SM -DZ BR OVC006 14/13 A3030 RMK AO2 SLP255 P0000 T01390128
KGSO 251241Z 04007KT 4SM -DZ BR OVC006 14/13 A3028 RMK AO2 P0000 T01390133
KGSO 251208Z COR 06008KT 1 1/2SM R05R/6000VP6000FT -DZ BR OVC006 14/13 A3028 RMK AO2 P0000 T01390133
KGSO 251154Z 07008KT 2SM R05R/5500VP6000FT -DZ BR OVC005 14/13 A3028 RMK AO2 DZE15B32 SLP249 P0000 60000 70002 T01390133 10150 20139 53017
KGSO 251135Z 09005KT 2 1/2SM -DZ BR OVC005 14/13 A3028 RMK AO2 DZE15B32 P0000 T01390133
KGSO 251054Z 06015KT 6SM -DZ BR OVC005 14/13 A3022 RMK AO2 DZB46 SLP229 P0000 T01390133
KGSO 250954Z 07006KT 7SM OVC006 14/13 A3023 RMK AO2 SLP234 T01440133
KGSO 250854Z 06008KT 10SM OVC008 14/13 A3023 RMK AO2 CIG 008V013 SLP232 T01440128 55001
KGSO 250754Z 06012KT 10SM OVC005 14/13 A3021 RMK AO2 SLP226 T01390128
KGSO 250654Z 03007KT 10SM OVC006 14/13 A3022 RMK AO2 SLP228 T01440133
KGSO 250554Z 04008KT 10SM BKN005 OVC012 15/14 A3023 RMK AO2 DZE30 SLP232 P0000 60001 T01500139 10161 20150 58004
KGSO 250454Z 05010KT 10SM -DZ BKN008 OVC013 15/14 A3025 RMK AO2 DZB47 SLP240 P0000 T01500139 401720139
KGSO 250354Z 02006KT 9SM OVC007 15/14 A3025 RMK AO2 DZE38 CIG 006V012 SLP239 P0000 T01500144
KGSO 250254Z 02004KT 7SM -DZ BR OVC005 15/14 A3024 RMK AO2 SLP237 P0000 60001 T01500144 53017
KGSO 250154Z 03007KT 4SM -DZ BR OVC007 15/14 A3021 RMK AO2 RAE50DZB50 CIG 003V010 SLP227 P0001 T01500144
KGSO 250054Z 02005KT 5SM -RA BR BKN009 OVC013 16/14 A3021 RMK AO2 RAB48 SLP225 P0000 T01560144
KGSO 242354Z 03005KT 10SM BKN012 OVC018 16/14 A3019 RMK AO2 SLP220 60000 T01610139 10172 20161 53013
KGSO 242254Z 02008KT 10SM BKN012 OVC018 16/14 A3017 RMK AO2 RAB45E54 SLP212 P0000 T01610139
KGSO 242154Z 04011KT 10SM BKN014 OVC019 17/14 A3016 RMK AO2 RAE01 SLP208 P0000 T01670139
KGSO 242135Z 05009G15KT 10SM BKN014 OVC019 17/14 A3016 RMK AO2 RAE01 P0000 T01670139
KGSO 242113Z 02010KT 10SM SCT011 BKN019 OVC024 17/14 A3015 RMK AO2 RAE01 P0000 T01720139
KGSO 242054Z 02007KT 10SM -RA BKN011 OVC019 16/14 A3015 RMK AO2 RAB40 SLP207 P0000 60000 T01610139 53001
KGSO 242041Z 04009KT 10SM -RA BKN013 OVC018 17/13 A3015 RMK AO2 RAB40 P0000 T01670133
KGSO 241954Z 04011G16KT 10SM BKN015 OVC020 17/14 A3014 RMK AO2 SLP202 T01720139
KGSO 241921Z 03010KT 10SM BKN015 OVC021 17/13 A3014 RMK AO2 T01720133
KGSO 241854Z 01006KT 10SM BKN011 OVC017 17/14 A3015 RMK AO2 SLP204 T01670139
KGSO 241754Z 04010KT 10SM BKN011 OVC021 17/13 A3015 RMK AO2 SLP205 60001 T01670133 10172 20139 50007
KGSO 241714Z 02009G15KT 10SM BKN010 OVC015 16/13 A3015 RMK AO2 T01610133
KGSO 241654Z 02008G16KT 10SM BKN008 OVC015 16/13 A3015 RMK AO2 SLP206 T01560133
KGSO 241554Z 01007G15KT 7SM BKN006 OVC012 15/13 A3014 RMK AO2 DZE51 SLP203 P0000 T01500133
KGSO 241454Z 36006KT 3SM -DZ BR OVC005 14/13 A3013 RMK AO2 DZB20 SLP198 P0000 60001 T01440133 51022
KGSO 241354Z 01009KT 10SM OVC005 14/13 A3011 RMK AO2 SLP193 T01440133
KGSO 241254Z 02009KT 7SM OVC005 14/14 A3009 RMK AO2 RAE48 SLP182 P0001 T01440139
KGSO 241223Z VRB06KT 3SM -RA BR OVC005 14/13 A3008 RMK AO2 CIG 003V007 P0001 T01440133
KGSO 241154Z 03007G15KT 350V050 1 1/4SM -RA BR BKN005 OVC017 14/14 A3006 RMK AO2 SLP175 P0003 60037 70194 T01440139 10156 20144 53016
KGSO 241125Z 01007KT 1SM R05R/5500VP6000FT -RA BR OVC005 14/14 A3006 RMK AO2 P0001 T01440139
KGSO 241111Z 01008KT 2SM -RA BR BKN005 OVC015 14/14 A3006 RMK AO2 SFC VIS 3 P0001 T01440139
KGSO 241054Z 36007KT 2SM -RA BR BKN004 OVC015 14/14 A3005 RMK AO2 SLP170 P0005 T01440139
KGSO 241043Z 36006KT 2SM -RA BR BKN004 OVC015 14/14 A3004 RMK AO2 P0005 T01440139
KGSO 241019Z 02013KT 1 1/4SM RA BR OVC004 14/13 A3003 RMK AO2 TWR VIS 2 P0003 T01440133
KGSO 240954Z 02005KT 2SM -RA BR BKN004 OVC012 14/14 A3003 RMK AO2 SLP162 P0013 T01440139
KGSO 240854Z 36008KT 2SM RA BR BKN004 OVC012 15/14 A3002 RMK AO2 SLP158 P0012 60016 T01500144 55003